sensor_id;sensor_type;location;lat;lon;timestamp;pressure;altitude;pressure_sealevel;temperature;humidity
11049;BME280;5577;42.706;23.160;2023-04-21T00:01:19;93758.63;;;8.76;100.00
11049;BME280;5577;42.706;23.160;2023-04-21T00:04:03;93750.13;;;8.67;100.00
11049;BME280;5577;42.706;23.160;2023-04-21T00:06:48;93751.34;;;8.54;100.00
11049;BME280;5577;42.706;23.160;2023-04-21T00:09:33;93753.13;;;8.50;100.00
11049;BME280;5577;42.706;23.160;2023-04-21T00:12:17;93751.84;;;8.44;100.00
11049;BME280;5577;42.706;23.160;2023-04-21T00:15:03;93754.72;;;8.39;100.00
11049;BME280;5577;42.706;23.160;2023-04-21T00:17:48;93742.75;;;8.42;100.00
11049;BME280;5577;42.706;23.160;2023-04-21T00:20:32;93743.59;;;8.46;100.00
11049;BME280;5577;42.706;23.160;2023-04-21T00:23:16;93744.00;;;8.48;100.00
11049;BME280;5577;42.706;23.160;2023-04-21T00:26:00;93744.28;;;8.43;100.00
11049;BME280;5577;42.706;23.160;2023-04-21T00:28:45;93749.38;;;8.51;100.00
11049;BME280;5577;42.706;23.160;2023-04-21T00:31:29;93742.16;;;8.48;100.00
11049;BME280;5577;42.706;23.160;2023-04-21T00:34:14;93745.63;;;8.52;100.00
11049;BME280;5577;42.706;23.160;2023-04-21T00:36:57;93744.28;;;8.58;100.00
11049;BME280;5577;42.706;23.160;2023-04-21T00:39:41;93746.81;;;8.70;100.00
11049;BME280;5577;42.706;23.160;2023-04-21T00:42:25;93745.91;;;8.63;100.00
11049;BME280;5577;42.706;23.160;2023-04-21T00:45:09;93755.16;;;8.72;100.00
11049;BME280;5577;42.706;23.160;2023-04-21T00:47:54;93747.22;;;8.88;100.00
11049;BME280;5577;42.706;23.160;2023-04-21T00:50:38;93749.91;;;8.92;100.00
11049;BME280;5577;42.706;23.160;2023-04-21T00:53:22;93748.13;;;8.96;100.00
11049;BME280;5577;42.706;23.160;2023-04-21T00:56:06;93743.66;;;8.80;100.00
11049;BME280;5577;42.706;23.160;2023-04-21T00:58:51;93738.13;;;8.86;100.00
11049;BME280;5577;42.706;23.160;2023-04-21T01:01:36;93734.16;;;8.95;100.00
11049;BME280;5577;42.706;23.160;2023-04-21T01:04:22;93738.97;;;8.90;100.00
11049;BME280;5577;42.706;23.160;2023-04-21T01:07:06;93742.78;;;8.92;100.00
11049;BME280;5577;42.706;23.160;2023-04-21T01:09:51;93736.47;;;8.97;100.00
11049;BME280;5577;42.706;23.160;2023-04-21T01:12:45;93737.06;;;8.90;100.00
11049;BME280;5577;42.706;23.160;2023-04-21T01:15:29;93727.47;;;8.82;100.00
11049;BME280;5577;42.706;23.160;2023-04-21T01:18:14;93742.81;;;8.76;100.00
11049;BME280;5577;42.706;23.160;2023-04-21T01:20:59;93735.91;;;8.72;100.00
11049;BME280;5577;42.706;23.160;2023-04-21T01:23:44;93740.03;;;8.88;100.00
11049;BME280;5577;42.706;23.160;2023-04-21T01:26:28;93740.47;;;8.91;100.00
11049;BME280;5577;42.706;23.160;2023-04-21T01:29:16;93737.19;;;8.78;100.00
11049;BME280;5577;42.706;23.160;2023-04-21T01:32:09;93711.97;;;8.80;100.00
11049;BME280;5577;42.706;23.160;2023-04-21T01:34:55;93737.41;;;8.88;100.00
11049;BME280;5577;42.706;23.160;2023-04-21T01:37:39;93724.34;;;8.96;100.00
11049;BME280;5577;42.706;23.160;2023-04-21T01:40:23;93721.88;;;9.03;100.00
11049;BME280;5577;42.706;23.160;2023-04-21T01:43:07;93663.59;;;8.57;100.00
11049;BME280;5577;42.706;23.160;2023-04-21T01:45:51;93726.41;;;9.02;100.00
11049;BME280;5577;42.706;23.160;2023-04-21T01:48:36;93718.06;;;9.00;100.00
11049;BME280;5577;42.706;23.160;2023-04-21T01:51:20;93724.47;;;8.83;100.00
11049;BME280;5577;42.706;23.160;2023-04-21T01:54:04;93721.72;;;8.61;100.00
11049;BME280;5577;42.706;23.160;2023-04-21T01:56:48;93718.72;;;8.78;100.00
11049;BME280;5577;42.706;23.160;2023-04-21T01:59:32;93721.31;;;8.94;100.00
11049;BME280;5577;42.706;23.160;2023-04-21T02:02:16;93719.44;;;8.94;100.00
11049;BME280;5577;42.706;23.160;2023-04-21T02:05:00;93715.59;;;8.92;100.00
11049;BME280;5577;42.706;23.160;2023-04-21T02:07:44;93720.88;;;8.92;100.00
11049;BME280;5577;42.706;23.160;2023-04-21T02:10:28;93720.50;;;8.74;100.00
11049;BME280;5577;42.706;23.160;2023-04-21T02:13:12;93722.66;;;8.68;100.00
11049;BME280;5577;42.706;23.160;2023-04-21T02:15:55;93715.31;;;8.62;100.00
11049;BME280;5577;42.706;23.160;2023-04-21T02:18:39;93713.13;;;8.64;100.00
11049;BME280;5577;42.706;23.160;2023-04-21T02:21:24;93682.59;;;8.47;100.00
11049;BME280;5577;42.706;23.160;2023-04-21T02:24:09;93708.53;;;8.61;100.00
11049;BME280;5577;42.706;23.160;2023-04-21T02:26:53;93707.16;;;8.67;100.00
11049;BME280;5577;42.706;23.160;2023-04-21T02:29:37;93710.44;;;8.79;100.00
11049;BME280;5577;42.706;23.160;2023-04-21T02:32:21;93713.94;;;8.83;100.00
11049;BME280;5577;42.706;23.160;2023-04-21T02:35:05;93702.22;;;8.65;100.00
11049;BME280;5577;42.706;23.160;2023-04-21T02:37:49;93706.91;;;8.56;100.00
11049;BME280;5577;42.706;23.160;2023-04-21T02:40:33;93712.91;;;8.38;100.00
11049;BME280;5577;42.706;23.160;2023-04-21T02:43:17;93715.53;;;8.38;100.00
11049;BME280;5577;42.706;23.160;2023-04-21T02:46:08;93718.59;;;8.40;100.00
11049;BME280;5577;42.706;23.160;2023-04-21T02:48:52;93715.28;;;8.43;100.00
11049;BME280;5577;42.706;23.160;2023-04-21T02:51:36;93713.06;;;8.45;100.00
11049;BME280;5577;42.706;23.160;2023-04-21T02:54:20;93710.31;;;8.57;100.00
11049;BME280;5577;42.706;23.160;2023-04-21T02:57:04;93722.31;;;8.54;100.00
11049;BME280;5577;42.706;23.160;2023-04-21T02:59:48;93729.72;;;8.64;100.00
11049;BME280;5577;42.706;23.160;2023-04-21T03:02:32;93724.94;;;8.70;100.00
11049;BME280;5577;42.706;23.160;2023-04-21T03:05:16;93715.91;;;8.71;100.00
11049;BME280;5577;42.706;23.160;2023-04-21T03:08:00;93722.31;;;8.70;100.00
11049;BME280;5577;42.706;23.160;2023-04-21T03:10:45;93724.09;;;8.66;100.00
11049;BME280;5577;42.706;23.160;2023-04-21T03:13:28;93730.06;;;8.63;100.00
11049;BME280;5577;42.706;23.160;2023-04-21T03:16:12;93720.75;;;8.69;100.00
11049;BME280;5577;42.706;23.160;2023-04-21T03:18:56;93731.91;;;8.78;100.00
11049;BME280;5577;42.706;23.160;2023-04-21T03:21:40;93723.50;;;8.72;100.00
11049;BME280;5577;42.706;23.160;2023-04-21T03:24:24;93714.72;;;8.68;100.00
11049;BME280;5577;42.706;23.160;2023-04-21T03:27:08;93726.97;;;8.76;100.00
11049;BME280;5577;42.706;23.160;2023-04-21T03:29:52;93742.38;;;8.74;100.00
11049;BME280;5577;42.706;23.160;2023-04-21T03:32:36;93738.97;;;8.74;100.00
11049;BME280;5577;42.706;23.160;2023-04-21T03:35:21;93706.06;;;8.37;100.00
11049;BME280;5577;42.706;23.160;2023-04-21T03:38:04;93737.22;;;8.47;100.00
11049;BME280;5577;42.706;23.160;2023-04-21T03:40:49;93742.81;;;8.30;100.00
11049;BME280;5577;42.706;23.160;2023-04-21T03:43:33;93732.84;;;8.08;100.00
11049;BME280;5577;42.706;23.160;2023-04-21T03:46:19;93737.44;;;8.11;100.00
11049;BME280;5577;42.706;23.160;2023-04-21T03:49:03;93737.44;;;8.11;100.00
11049;BME280;5577;42.706;23.160;2023-04-21T03:51:47;93734.38;;;8.09;100.00
11049;BME280;5577;42.706;23.160;2023-04-21T03:54:31;93752.97;;;8.28;100.00
11049;BME280;5577;42.706;23.160;2023-04-21T03:57:15;93746.47;;;8.41;100.00
11049;BME280;5577;42.706;23.160;2023-04-21T03:59:59;93749.13;;;8.56;100.00
11049;BME280;5577;42.706;23.160;2023-04-21T04:02:43;93749.44;;;8.70;100.00
11049;BME280;5577;42.706;23.160;2023-04-21T04:05:27;93762.47;;;8.79;100.00
11049;BME280;5577;42.706;23.160;2023-04-21T04:08:11;93754.56;;;8.63;100.00
11049;BME280;5577;42.706;23.160;2023-04-21T04:10:55;93766.56;;;8.61;100.00
11049;BME280;5577;42.706;23.160;2023-04-21T04:13:39;93764.03;;;8.49;100.00
11049;BME280;5577;42.706;23.160;2023-04-21T04:16:23;93759.09;;;8.32;100.00
11049;BME280;5577;42.706;23.160;2023-04-21T04:19:07;93767.69;;;8.44;100.00
11049;BME280;5577;42.706;23.160;2023-04-21T04:21:51;93765.28;;;8.55;100.00
11049;BME280;5577;42.706;23.160;2023-04-21T04:24:35;93772.09;;;8.71;100.00
11049;BME280;5577;42.706;23.160;2023-04-21T04:27:20;93783.81;;;8.90;100.00
11049;BME280;5577;42.706;23.160;2023-04-21T04:30:04;93779.22;;;9.02;100.00
11049;BME280;5577;42.706;23.160;2023-04-21T04:32:48;93781.38;;;9.16;100.00
11049;BME280;5577;42.706;23.160;2023-04-21T04:35:32;93766.03;;;9.21;100.00
11049;BME280;5577;42.706;23.160;2023-04-21T04:38:16;93769.50;;;9.25;100.00
11049;BME280;5577;42.706;23.160;2023-04-21T04:41:00;93779.28;;;9.59;100.00
11049;BME280;5577;42.706;23.160;2023-04-21T04:43:45;93783.38;;;9.76;100.00
11049;BME280;5577;42.706;23.160;2023-04-21T04:46:30;93784.66;;;9.63;100.00
11049;BME280;5577;42.706;23.160;2023-04-21T04:49:15;93785.69;;;9.77;100.00
11049;BME280;5577;42.706;23.160;2023-04-21T04:51:59;93774.00;;;9.78;100.00
11049;BME280;5577;42.706;23.160;2023-04-21T04:54:44;93775.72;;;9.90;100.00
11049;BME280;5577;42.706;23.160;2023-04-21T04:57:29;93772.59;;;10.03;100.00
11049;BME280;5577;42.706;23.160;2023-04-21T05:00:13;93793.19;;;10.13;100.00
11049;BME280;5577;42.706;23.160;2023-04-21T05:02:58;93779.13;;;10.28;100.00
11049;BME280;5577;42.706;23.160;2023-04-21T05:05:42;93784.88;;;10.34;100.00
11049;BME280;5577;42.706;23.160;2023-04-21T05:08:25;93782.94;;;10.31;100.00
11049;BME280;5577;42.706;23.160;2023-04-21T05:11:09;93761.53;;;10.17;100.00
11049;BME280;5577;42.706;23.160;2023-04-21T05:13:53;93790.22;;;10.37;100.00
11049;BME280;5577;42.706;23.160;2023-04-21T05:16:37;93785.19;;;10.51;100.00
11049;BME280;5577;42.706;23.160;2023-04-21T05:19:21;93782.47;;;10.48;100.00
11049;BME280;5577;42.706;23.160;2023-04-21T05:22:05;93787.59;;;10.60;100.00
11049;BME280;5577;42.706;23.160;2023-04-21T05:24:49;93793.81;;;10.71;100.00
11049;BME280;5577;42.706;23.160;2023-04-21T05:27:33;93785.25;;;10.77;100.00
11049;BME280;5577;42.706;23.160;2023-04-21T05:30:17;93788.94;;;10.73;100.00
11049;BME280;5577;42.706;23.160;2023-04-21T05:33:01;93785.34;;;10.84;100.00
11049;BME280;5577;42.706;23.160;2023-04-21T05:35:45;93782.47;;;10.93;100.00
11049;BME280;5577;42.706;23.160;2023-04-21T05:38:29;93780.06;;;11.10;100.00
11049;BME280;5577;42.706;23.160;2023-04-21T05:41:13;93780.47;;;11.12;100.00
11049;BME280;5577;42.706;23.160;2023-04-21T05:43:56;93779.03;;;10.92;100.00
11049;BME280;5577;42.706;23.160;2023-04-21T05:46:40;93780.34;;;10.79;100.00
11049;BME280;5577;42.706;23.160;2023-04-21T05:49:24;93783.47;;;10.62;100.00
11049;BME280;5577;42.706;23.160;2023-04-21T05:52:08;93782.38;;;10.63;100.00
11049;BME280;5577;42.706;23.160;2023-04-21T05:54:53;93779.06;;;10.70;100.00
11049;BME280;5577;42.706;23.160;2023-04-21T05:57:37;93789.31;;;10.97;100.00
11049;BME280;5577;42.706;23.160;2023-04-21T06:00:21;93785.88;;;11.19;100.00
11049;BME280;5577;42.706;23.160;2023-04-21T06:03:05;93784.22;;;11.11;100.00
11049;BME280;5577;42.706;23.160;2023-04-21T06:05:53;93781.47;;;11.30;100.00
11049;BME280;5577;42.706;23.160;2023-04-21T06:08:38;93757.31;;;11.35;100.00
11049;BME280;5577;42.706;23.160;2023-04-21T06:11:22;93778.16;;;11.63;100.00
11049;BME280;5577;42.706;23.160;2023-04-21T06:14:07;93775.28;;;11.79;100.00
11049;BME280;5577;42.706;23.160;2023-04-21T06:16:50;93780.84;;;11.67;100.00
11049;BME280;5577;42.706;23.160;2023-04-21T06:19:37;93781.03;;;11.81;100.00
11049;BME280;5577;42.706;23.160;2023-04-21T06:22:24;93757.66;;;11.90;100.00
11049;BME280;5577;42.706;23.160;2023-04-21T06:25:09;93779.25;;;12.25;100.00
11049;BME280;5577;42.706;23.160;2023-04-21T06:27:53;93784.06;;;12.52;100.00
11049;BME280;5577;42.706;23.160;2023-04-21T06:30:37;93787.38;;;12.42;100.00
11049;BME280;5577;42.706;23.160;2023-04-21T06:33:20;93778.75;;;12.12;100.00
11049;BME280;5577;42.706;23.160;2023-04-21T06:36:05;93776.97;;;12.27;100.00
11049;BME280;5577;42.706;23.160;2023-04-21T06:38:49;93778.41;;;12.21;100.00
11049;BME280;5577;42.706;23.160;2023-04-21T06:41:32;93773.75;;;12.07;100.00
11049;BME280;5577;42.706;23.160;2023-04-21T06:44:17;93772.28;;;12.50;100.00
11049;BME280;5577;42.706;23.160;2023-04-21T06:47:01;93777.09;;;12.81;100.00
11049;BME280;5577;42.706;23.160;2023-04-21T06:49:45;93777.34;;;13.09;100.00
11049;BME280;5577;42.706;23.160;2023-04-21T06:52:29;93761.34;;;13.66;100.00
11049;BME280;5577;42.706;23.160;2023-04-21T06:55:14;93761.69;;;13.61;100.00
11049;BME280;5577;42.706;23.160;2023-04-21T06:57:58;93760.34;;;13.24;100.00
11049;BME280;5577;42.706;23.160;2023-04-21T07:00:42;93766.69;;;13.05;100.00
11049;BME280;5577;42.706;23.160;2023-04-21T07:03:26;93682.72;;;12.43;100.00
11049;BME280;5577;42.706;23.160;2023-04-21T07:06:10;93772.91;;;13.30;100.00
11049;BME280;5577;42.706;23.160;2023-04-21T07:08:55;93767.72;;;13.51;100.00
11049;BME280;5577;42.706;23.160;2023-04-21T07:11:39;93764.09;;;13.87;100.00
11049;BME280;5577;42.706;23.160;2023-04-21T07:14:23;93758.44;;;13.99;100.00
11049;BME280;5577;42.706;23.160;2023-04-21T07:17:06;93770.19;;;13.95;100.00
11049;BME280;5577;42.706;23.160;2023-04-21T07:19:50;93772.03;;;13.80;100.00
11049;BME280;5577;42.706;23.160;2023-04-21T07:22:34;93763.00;;;13.95;100.00
11049;BME280;5577;42.706;23.160;2023-04-21T07:25:19;93770.25;;;14.05;100.00
11049;BME280;5577;42.706;23.160;2023-04-21T07:28:03;93770.88;;;13.74;100.00
11049;BME280;5577;42.706;23.160;2023-04-21T07:30:47;93773.47;;;13.60;100.00
11049;BME280;5577;42.706;23.160;2023-04-21T07:33:31;93767.13;;;13.79;100.00
11049;BME280;5577;42.706;23.160;2023-04-21T07:36:16;93742.75;;;13.70;100.00
11049;BME280;5577;42.706;23.160;2023-04-21T07:39:00;93768.16;;;13.64;100.00
11049;BME280;5577;42.706;23.160;2023-04-21T07:41:44;93734.22;;;14.32;100.00
11049;BME280;5577;42.706;23.160;2023-04-21T07:44:29;93768.84;;;14.39;100.00
11049;BME280;5577;42.706;23.160;2023-04-21T07:47:13;93777.22;;;14.42;100.00
11049;BME280;5577;42.706;23.160;2023-04-21T07:49:57;93776.44;;;14.38;100.00
11049;BME280;5577;42.706;23.160;2023-04-21T07:52:41;93776.47;;;14.52;100.00
11049;BME280;5577;42.706;23.160;2023-04-21T07:55:24;93777.63;;;14.86;95.57
11049;BME280;5577;42.706;23.160;2023-04-21T07:58:09;93779.94;;;14.91;96.96
11049;BME280;5577;42.706;23.160;2023-04-21T08:00:54;93786.00;;;14.70;94.49
11049;BME280;5577;42.706;23.160;2023-04-21T08:03:38;93778.72;;;14.32;100.00
11049;BME280;5577;42.706;23.160;2023-04-21T08:06:22;93779.13;;;14.45;100.00
11049;BME280;5577;42.706;23.160;2023-04-21T08:09:06;93780.59;;;14.35;100.00
11049;BME280;5577;42.706;23.160;2023-04-21T08:11:50;93780.59;;;14.35;99.15
11049;BME280;5577;42.706;23.160;2023-04-21T08:14:34;93774.16;;;14.47;99.69
11049;BME280;5577;42.706;23.160;2023-04-21T08:17:18;93773.84;;;15.04;98.15
11049;BME280;5577;42.706;23.160;2023-04-21T08:20:03;93779.56;;;14.96;93.46
11049;BME280;5577;42.706;23.160;2023-04-21T08:22:47;93773.06;;;15.35;90.99
11049;BME280;5577;42.706;23.160;2023-04-21T08:25:31;93765.81;;;15.46;91.32
11049;BME280;5577;42.706;23.160;2023-04-21T08:28:15;93769.25;;;15.54;88.38
11049;BME280;5577;42.706;23.160;2023-04-21T08:30:59;93736.44;;;15.60;86.42
11049;BME280;5577;42.706;23.160;2023-04-21T08:33:44;93723.56;;;14.96;86.61
11049;BME280;5577;42.706;23.160;2023-04-21T08:36:29;93765.09;;;15.00;89.51
11049;BME280;5577;42.706;23.160;2023-04-21T08:39:16;93765.09;;;15.11;91.26
11049;BME280;5577;42.706;23.160;2023-04-21T08:42:01;93768.50;;;15.36;90.31
11049;BME280;5577;42.706;23.160;2023-04-21T08:44:45;93775.31;;;15.58;89.01
11049;BME280;5577;42.706;23.160;2023-04-21T08:47:31;93767.34;;;15.30;89.42
11049;BME280;5577;42.706;23.160;2023-04-21T08:50:15;93731.94;;;15.26;89.94
11049;BME280;5577;42.706;23.160;2023-04-21T08:52:59;93758.06;;;15.90;87.17
11049;BME280;5577;42.706;23.160;2023-04-21T08:55:44;93759.31;;;17.02;84.54
11049;BME280;5577;42.706;23.160;2023-04-21T08:58:28;93753.19;;;17.49;77.79
11049;BME280;5577;42.706;23.160;2023-04-21T09:01:12;93757.97;;;18.02;74.84
11049;BME280;5577;42.706;23.160;2023-04-21T09:04:16;93748.41;;;18.87;69.83
11049;BME280;5577;42.706;23.160;2023-04-21T09:07:00;93711.25;;;18.86;63.62
11049;BME280;5577;42.706;23.160;2023-04-21T09:09:52;93733.09;;;18.01;71.15
11049;BME280;5577;42.706;23.160;2023-04-21T09:12:38;93740.34;;;17.71;71.58
11049;BME280;5577;42.706;23.160;2023-04-21T09:15:25;93742.25;;;17.33;72.93
11049;BME280;5577;42.706;23.160;2023-04-21T09:18:20;93739.91;;;17.35;74.67
11049;BME280;5577;42.706;23.160;2023-04-21T09:23:53;93734.38;;;17.15;69.28
11049;BME280;5577;42.706;23.160;2023-04-21T09:26:41;93730.75;;;17.73;69.98
11049;BME280;5577;42.706;23.160;2023-04-21T09:29:26;93725.41;;;17.33;66.02
11049;BME280;5577;42.706;23.160;2023-04-21T09:32:11;93696.78;;;16.34;68.50
11049;BME280;5577;42.706;23.160;2023-04-21T09:34:59;93715.88;;;16.91;71.24
11049;BME280;5577;42.706;23.160;2023-04-21T09:37:43;93718.97;;;17.67;69.29
11049;BME280;5577;42.706;23.160;2023-04-21T09:40:29;93716.38;;;17.94;66.80
11049;BME280;5577;42.706;23.160;2023-04-21T09:43:13;93709.72;;;17.75;66.18
11049;BME280;5577;42.706;23.160;2023-04-21T09:45:58;93715.94;;;17.65;64.21
11049;BME280;5577;42.706;23.160;2023-04-21T09:48:45;93708.63;;;17.69;62.49
11049;BME280;5577;42.706;23.160;2023-04-21T09:51:30;93708.94;;;17.38;60.01
11049;BME280;5577;42.706;23.160;2023-04-21T09:54:19;93700.06;;;17.07;63.04
11049;BME280;5577;42.706;23.160;2023-04-21T09:57:05;93706.03;;;16.19;69.01
11049;BME280;5577;42.706;23.160;2023-04-21T10:00:01;93708.06;;;16.01;71.48
11049;BME280;5577;42.706;23.160;2023-04-21T10:02:49;93700.81;;;15.95;70.06
11049;BME280;5577;42.706;23.160;2023-04-21T10:05:33;93711.88;;;15.97;69.83
11049;BME280;5577;42.706;23.160;2023-04-21T10:08:17;93703.47;;;16.02;70.23
11049;BME280;5577;42.706;23.160;2023-04-21T10:11:02;93704.78;;;16.45;71.11
11049;BME280;5577;42.706;23.160;2023-04-21T10:13:47;93705.56;;;16.89;68.01
11049;BME280;5577;42.706;23.160;2023-04-21T10:16:35;93693.72;;;17.31;65.87
11049;BME280;5577;42.706;23.160;2023-04-21T10:19:25;93701.31;;;18.60;63.10
11049;BME280;5577;42.706;23.160;2023-04-21T10:22:09;93696.28;;;18.09;61.66
11049;BME280;5577;42.706;23.160;2023-04-21T10:24:55;93708.38;;;17.57;63.39
11049;BME280;5577;42.706;23.160;2023-04-21T10:27:41;93692.19;;;17.30;64.12
11049;BME280;5577;42.706;23.160;2023-04-21T10:30:26;93691.63;;;17.08;62.18
11049;BME280;5577;42.706;23.160;2023-04-21T10:33:11;93687.72;;;17.91;63.20
11049;BME280;5577;42.706;23.160;2023-04-21T10:35:58;93685.44;;;18.46;58.15
11049;BME280;5577;42.706;23.160;2023-04-21T10:38:54;93675.84;;;19.79;57.14
11049;BME280;5577;42.706;23.160;2023-04-21T10:41:42;93685.63;;;19.90;53.81
11049;BME280;5577;42.706;23.160;2023-04-21T10:44:29;93674.13;;;20.60;51.14
11049;BME280;5577;42.706;23.160;2023-04-21T10:47:34;93685.03;;;22.44;45.89
11049;BME280;5577;42.706;23.160;2023-04-21T10:50:28;93672.19;;;24.22;42.08
11049;BME280;5577;42.706;23.160;2023-04-21T10:53:15;93669.53;;;26.45;38.90
11049;BME280;5577;42.706;23.160;2023-04-21T10:55:59;93674.63;;;24.29;40.40
11049;BME280;5577;42.706;23.160;2023-04-21T10:58:45;93684.56;;;21.95;43.04
11049;BME280;5577;42.706;23.160;2023-04-21T11:01:30;93671.22;;;23.51;42.51
11049;BME280;5577;42.706;23.160;2023-04-21T11:07:11;93674.88;;;23.11;39.73
11049;BME280;5577;42.706;23.160;2023-04-21T11:09:58;93670.25;;;22.23;40.55
11049;BME280;5577;42.706;23.160;2023-04-21T11:12:42;93657.34;;;23.40;41.33
11049;BME280;5577;42.706;23.160;2023-04-21T11:15:26;93662.13;;;24.92;38.36
11049;BME280;5577;42.706;23.160;2023-04-21T11:18:10;93662.78;;;25.06;37.93
11049;BME280;5577;42.706;23.160;2023-04-21T11:20:54;93683.94;;;22.04;41.62
11049;BME280;5577;42.706;23.160;2023-04-21T11:23:39;93677.00;;;20.18;44.63
11049;BME280;5577;42.706;23.160;2023-04-21T11:26:35;93669.75;;;19.17;47.27
11049;BME280;5577;42.706;23.160;2023-04-21T11:29:21;93672.66;;;18.57;50.73
11049;BME280;5577;42.706;23.160;2023-04-21T11:32:06;93662.44;;;19.60;50.26
11049;BME280;5577;42.706;23.160;2023-04-21T11:34:51;93670.34;;;19.67;49.15
11049;BME280;5577;42.706;23.160;2023-04-21T11:37:35;93676.44;;;18.59;50.97
11049;BME280;5577;42.706;23.160;2023-04-21T11:40:19;93672.09;;;18.12;52.95
11049;BME280;5577;42.706;23.160;2023-04-21T11:43:04;93681.19;;;17.92;52.80
11049;BME280;5577;42.706;23.160;2023-04-21T11:45:49;93672.38;;;18.21;52.30
11049;BME280;5577;42.706;23.160;2023-04-21T11:48:34;93674.59;;;18.26;53.27
11049;BME280;5577;42.706;23.160;2023-04-21T11:51:18;93673.97;;;18.15;52.47
11049;BME280;5577;42.706;23.160;2023-04-21T11:54:05;93677.66;;;17.98;53.55
11049;BME280;5577;42.706;23.160;2023-04-21T11:56:50;93684.09;;;18.04;53.48
11049;BME280;5577;42.706;23.160;2023-04-21T11:59:37;93667.81;;;18.18;55.11
11049;BME280;5577;42.706;23.160;2023-04-21T12:02:27;93639.97;;;18.12;54.12
11049;BME280;5577;42.706;23.160;2023-04-21T12:05:12;93671.22;;;18.22;54.47
11049;BME280;5577;42.706;23.160;2023-04-21T12:07:56;93681.56;;;17.94;54.17
11049;BME280;5577;42.706;23.160;2023-04-21T12:10:43;93685.34;;;17.96;55.39
11049;BME280;5577;42.706;23.160;2023-04-21T12:13:28;93670.97;;;18.13;56.69
11049;BME280;5577;42.706;23.160;2023-04-21T12:16:14;93676.44;;;18.03;57.21
11049;BME280;5577;42.706;23.160;2023-04-21T12:18:58;93671.19;;;18.26;56.65
11049;BME280;5577;42.706;23.160;2023-04-21T12:21:42;93668.53;;;18.22;55.96
11049;BME280;5577;42.706;23.160;2023-04-21T12:24:26;93647.00;;;18.03;55.00
11049;BME280;5577;42.706;23.160;2023-04-21T12:27:11;93677.34;;;18.49;54.42
11049;BME280;5577;42.706;23.160;2023-04-21T12:29:55;93672.88;;;18.43;53.02
11049;BME280;5577;42.706;23.160;2023-04-21T12:32:39;93676.66;;;18.68;53.70
11049;BME280;5577;42.706;23.160;2023-04-21T12:35:24;93666.06;;;19.30;52.00
11049;BME280;5577;42.706;23.160;2023-04-21T12:38:08;93679.97;;;20.04;50.14
11049;BME280;5577;42.706;23.160;2023-04-21T12:40:52;93679.47;;;20.09;50.98
11049;BME280;5577;42.706;23.160;2023-04-21T12:43:36;93677.22;;;20.43;49.66
11049;BME280;5577;42.706;23.160;2023-04-21T12:46:20;93678.97;;;19.58;51.00
11049;BME280;5577;42.706;23.160;2023-04-21T12:49:05;93678.31;;;19.31;52.13
11049;BME280;5577;42.706;23.160;2023-04-21T12:51:50;93674.94;;;19.27;52.77
11049;BME280;5577;42.706;23.160;2023-04-21T12:54:34;93668.06;;;19.46;52.29
11049;BME280;5577;42.706;23.160;2023-04-21T12:57:19;93667.53;;;19.54;52.84
11049;BME280;5577;42.706;23.160;2023-04-21T13:00:04;93663.66;;;19.95;52.01
11049;BME280;5577;42.706;23.160;2023-04-21T13:02:48;93664.03;;;21.28;49.45
11049;BME280;5577;42.706;23.160;2023-04-21T13:05:32;93657.88;;;24.82;43.70
11049;BME280;5577;42.706;23.160;2023-04-21T13:08:16;93655.72;;;28.23;35.22
11049;BME280;5577;42.706;23.160;2023-04-21T13:11:01;93623.16;;;27.85;33.77
11049;BME280;5577;42.706;23.160;2023-04-21T13:13:45;93655.13;;;25.22;36.60
11049;BME280;5577;42.706;23.160;2023-04-21T13:16:29;93645.41;;;23.04;40.51
11049;BME280;5577;42.706;23.160;2023-04-21T13:19:13;93569.81;;;22.70;40.59
11049;BME280;5577;42.706;23.160;2023-04-21T13:21:57;93645.13;;;22.39;42.43
11049;BME280;5577;42.706;23.160;2023-04-21T13:24:41;93643.00;;;21.52;43.06
11049;BME280;5577;42.706;23.160;2023-04-21T13:27:26;93638.63;;;22.11;42.39
11049;BME280;5577;42.706;23.160;2023-04-21T13:30:11;93638.81;;;21.22;42.57
11049;BME280;5577;42.706;23.160;2023-04-21T13:32:55;93641.75;;;20.80;43.82
11049;BME280;5577;42.706;23.160;2023-04-21T13:35:39;93644.66;;;21.33;42.00
11049;BME280;5577;42.706;23.160;2023-04-21T13:38:23;93639.78;;;21.57;43.75
11049;BME280;5577;42.706;23.160;2023-04-21T13:41:07;93639.81;;;22.98;41.13
11049;BME280;5577;42.706;23.160;2023-04-21T13:43:51;93638.44;;;25.60;37.62
11049;BME280;5577;42.706;23.160;2023-04-21T13:46:36;93623.38;;;25.77;34.92
11049;BME280;5577;42.706;23.160;2023-04-21T13:49:20;93629.69;;;25.29;35.63
11049;BME280;5577;42.706;23.160;2023-04-21T13:52:04;93624.31;;;24.31;36.61
11049;BME280;5577;42.706;23.160;2023-04-21T13:54:49;93630.25;;;23.53;37.71
11049;BME280;5577;42.706;23.160;2023-04-21T13:57:34;93626.75;;;21.84;39.66
11049;BME280;5577;42.706;23.160;2023-04-21T14:00:18;93631.78;;;20.96;40.84
11049;BME280;5577;42.706;23.160;2023-04-21T14:03:03;93632.94;;;20.95;42.76
11049;BME280;5577;42.706;23.160;2023-04-21T14:05:48;93632.44;;;20.36;43.33
11049;BME280;5577;42.706;23.160;2023-04-21T14:08:32;93624.63;;;19.70;44.95
11049;BME280;5577;42.706;23.160;2023-04-21T14:11:16;93590.59;;;19.83;45.03
11049;BME280;5577;42.706;23.160;2023-04-21T14:14:00;93598.41;;;20.30;43.93
11049;BME280;5577;42.706;23.160;2023-04-21T14:16:45;93615.22;;;21.55;41.17
11049;BME280;5577;42.706;23.160;2023-04-21T14:19:33;93586.56;;;20.75;42.67
11049;BME280;5577;42.706;23.160;2023-04-21T14:22:18;93604.19;;;20.28;44.62
11049;BME280;5577;42.706;23.160;2023-04-21T14:25:03;93580.44;;;19.91;46.02
11049;BME280;5577;42.706;23.160;2023-04-21T14:27:48;93590.72;;;19.76;46.35
11049;BME280;5577;42.706;23.160;2023-04-21T14:30:35;93606.66;;;19.48;45.36
11049;BME280;5577;42.706;23.160;2023-04-21T14:33:19;93609.53;;;19.18;44.21
11049;BME280;5577;42.706;23.160;2023-04-21T14:36:03;93606.56;;;18.70;47.51